sensor_id;sensor_type;location;lat;lon;timestamp;temperature;humidity
39067;DHT22;24821;51.988;6.020;2022-10-13T00:01:42;10.70;99.90
39067;DHT22;24821;51.988;6.020;2022-10-13T00:04:08;10.70;99.90
39067;DHT22;24821;51.988;6.020;2022-10-13T00:06:34;10.70;99.90
39067;DHT22;24821;51.988;6.020;2022-10-13T00:08:59;10.70;99.90
39067;DHT22;24821;51.988;6.020;2022-10-13T00:11:27;10.70;99.90
39067;DHT22;24821;51.988;6.020;2022-10-13T00:13:59;10.70;99.90
39067;DHT22;24821;51.988;6.020;2022-10-13T00:16:27;10.70;99.90
39067;DHT22;24821;51.988;6.020;2022-10-13T00:18:53;10.70;99.90
39067;DHT22;24821;51.988;6.020;2022-10-13T00:21:22;10.70;99.90
39067;DHT22;24821;51.988;6.020;2022-10-13T00:23:48;10.70;99.90
39067;DHT22;24821;51.988;6.020;2022-10-13T00:26:15;10.70;99.90
39067;DHT22;24821;51.988;6.020;2022-10-13T00:28:41;10.70;99.90
39067;DHT22;24821;51.988;6.020;2022-10-13T00:31:15;10.70;99.90
39067;DHT22;24821;51.988;6.020;2022-10-13T00:33:41;10.70;99.90
39067;DHT22;24821;51.988;6.020;2022-10-13T00:36:07;10.60;99.90
39067;DHT22;24821;51.988;6.020;2022-10-13T00:38:32;10.60;99.90
39067;DHT22;24821;51.988;6.020;2022-10-13T00:40:58;10.70;99.90
39067;DHT22;24821;51.988;6.020;2022-10-13T00:43:26;10.70;99.90
39067;DHT22;24821;51.988;6.020;2022-10-13T00:45:52;10.70;99.90
39067;DHT22;24821;51.988;6.020;2022-10-13T00:48:23;10.80;99.90
39067;DHT22;24821;51.988;6.020;2022-10-13T00:50:49;10.80;99.90
39067;DHT22;24821;51.988;6.020;2022-10-13T00:53:17;10.80;99.90
39067;DHT22;24821;51.988;6.020;2022-10-13T00:55:44;10.90;99.90
39067;DHT22;24821;51.988;6.020;2022-10-13T00:58:12;10.90;99.90
39067;DHT22;24821;51.988;6.020;2022-10-13T01:00:46;11.00;99.90
39067;DHT22;24821;51.988;6.020;2022-10-13T01:03:12;11.00;99.90
39067;DHT22;24821;51.988;6.020;2022-10-13T01:05:39;11.10;99.90
39067;DHT22;24821;51.988;6.020;2022-10-13T01:08:06;11.10;99.90
39067;DHT22;24821;51.988;6.020;2022-10-13T01:13:44;11.10;99.90
39067;DHT22;24821;51.988;6.020;2022-10-13T01:31:12;11.30;99.90
39067;DHT22;24821;51.988;6.020;2022-10-13T01:33:44;11.30;99.90
39067;DHT22;24821;51.988;6.020;2022-10-13T01:36:25;11.30;99.90
39067;DHT22;24821;51.988;6.020;2022-10-13T01:39:05;11.30;99.90
39067;DHT22;24821;51.988;6.020;2022-10-13T01:41:37;11.30;99.90
39067;DHT22;24821;51.988;6.020;2022-10-13T01:44:22;11.30;99.90
39067;DHT22;24821;51.988;6.020;2022-10-13T01:46:50;11.30;99.90
39067;DHT22;24821;51.988;6.020;2022-10-13T01:49:18;11.30;99.90
39067;DHT22;24821;51.988;6.020;2022-10-13T01:51:45;11.30;99.90
39067;DHT22;24821;51.988;6.020;2022-10-13T01:54:12;11.30;99.90
39067;DHT22;24821;51.988;6.020;2022-10-13T01:56:37;11.40;99.90
39067;DHT22;24821;51.988;6.020;2022-10-13T01:59:11;11.40;99.90
39067;DHT22;24821;51.988;6.020;2022-10-13T02:02:17;11.40;99.90
39067;DHT22;24821;51.988;6.020;2022-10-13T02:05:06;11.40;99.90
39067;DHT22;24821;51.988;6.020;2022-10-13T02:10:55;11.40;99.90
39067;DHT22;24821;51.988;6.020;2022-10-13T02:13:26;11.40;99.90
39067;DHT22;24821;51.988;6.020;2022-10-13T02:15:54;11.40;99.90
39067;DHT22;24821;51.988;6.020;2022-10-13T02:18:28;11.40;99.90
39067;DHT22;24821;51.988;6.020;2022-10-13T02:20:55;11.50;99.90
39067;DHT22;24821;51.988;6.020;2022-10-13T02:23:21;11.40;99.90
39067;DHT22;24821;51.988;6.020;2022-10-13T02:25:47;11.40;99.90
39067;DHT22;24821;51.988;6.020;2022-10-13T02:28:15;11.50;99.90
39067;DHT22;24821;51.988;6.020;2022-10-13T02:30:41;11.50;99.90
39067;DHT22;24821;51.988;6.020;2022-10-13T02:33:08;11.50;99.90
39067;DHT22;24821;51.988;6.020;2022-10-13T02:35:33;11.50;99.90
39067;DHT22;24821;51.988;6.020;2022-10-13T02:37:59;11.50;99.90
39067;DHT22;24821;51.988;6.020;2022-10-13T02:40:26;11.50;99.90
39067;DHT22;24821;51.988;6.020;2022-10-13T02:42:51;11.50;99.90
39067;DHT22;24821;51.988;6.020;2022-10-13T02:45:17;11.50;99.90
39067;DHT22;24821;51.988;6.020;2022-10-13T02:47:43;11.50;99.90
39067;DHT22;24821;51.988;6.020;2022-10-13T02:50:09;11.50;99.90
39067;DHT22;24821;51.988;6.020;2022-10-13T02:52:35;11.50;99.90
39067;DHT22;24821;51.988;6.020;2022-10-13T02:55:00;11.50;99.90
39067;DHT22;24821;51.988;6.020;2022-10-13T02:57:26;11.50;99.90
39067;DHT22;24821;51.988;6.020;2022-10-13T02:59:52;11.50;99.90
39067;DHT22;24821;51.988;6.020;2022-10-13T03:02:17;11.60;99.90
39067;DHT22;24821;51.988;6.020;2022-10-13T03:04:43;11.60;99.90
39067;DHT22;24821;51.988;6.020;2022-10-13T03:07:09;11.60;99.90
39067;DHT22;24821;51.988;6.020;2022-10-13T03:09:34;11.50;99.90
39067;DHT22;24821;51.988;6.020;2022-10-13T03:12:00;11.60;99.90
39067;DHT22;24821;51.988;6.020;2022-10-13T03:14:26;11.50;99.90
39067;DHT22;24821;51.988;6.020;2022-10-13T03:16:52;11.50;99.90
39067;DHT22;24821;51.988;6.020;2022-10-13T03:19:17;11.60;99.90
39067;DHT22;24821;51.988;6.020;2022-10-13T03:21:43;11.50;99.90
39067;DHT22;24821;51.988;6.020;2022-10-13T03:24:08;11.50;99.90
39067;DHT22;24821;51.988;6.020;2022-10-13T03:26:34;11.50;99.90
39067;DHT22;24821;51.988;6.020;2022-10-13T03:29:00;11.50;99.90
39067;DHT22;24821;51.988;6.020;2022-10-13T03:31:26;11.50;99.90
39067;DHT22;24821;51.988;6.020;2022-10-13T03:33:51;11.50;99.90
39067;DHT22;24821;51.988;6.020;2022-10-13T03:36:17;11.50;99.90
39067;DHT22;24821;51.988;6.020;2022-10-13T03:38:42;11.50;99.90
39067;DHT22;24821;51.988;6.020;2022-10-13T03:41:16;11.50;99.90
39067;DHT22;24821;51.988;6.020;2022-10-13T03:43:43;11.60;99.90
39067;DHT22;24821;51.988;6.020;2022-10-13T03:46:13;11.50;99.90
39067;DHT22;24821;51.988;6.020;2022-10-13T03:48:39;11.50;99.90
39067;DHT22;24821;51.988;6.020;2022-10-13T03:51:13;11.50;99.90
39067;DHT22;24821;51.988;6.020;2022-10-13T03:53:39;11.50;99.90
39067;DHT22;24821;51.988;6.020;2022-10-13T03:56:04;11.50;99.90
39067;DHT22;24821;51.988;6.020;2022-10-13T03:58:31;11.50;99.90
39067;DHT22;24821;51.988;6.020;2022-10-13T04:01:02;11.50;99.90
39067;DHT22;24821;51.988;6.020;2022-10-13T04:03:27;11.60;99.90
39067;DHT22;24821;51.988;6.020;2022-10-13T04:05:53;11.60;99.90
39067;DHT22;24821;51.988;6.020;2022-10-13T04:08:18;11.60;99.90
39067;DHT22;24821;51.988;6.020;2022-10-13T04:10:44;11.60;99.90
39067;DHT22;24821;51.988;6.020;2022-10-13T04:13:09;11.60;99.90
39067;DHT22;24821;51.988;6.020;2022-10-13T04:15:39;11.70;99.90
39067;DHT22;24821;51.988;6.020;2022-10-13T04:18:06;11.70;99.90
39067;DHT22;24821;51.988;6.020;2022-10-13T04:20:39;11.70;99.90
39067;DHT22;24821;51.988;6.020;2022-10-13T04:23:05;11.70;99.90
39067;DHT22;24821;51.988;6.020;2022-10-13T04:25:34;11.70;99.90
39067;DHT22;24821;51.988;6.020;2022-10-13T04:28:01;11.80;99.90
39067;DHT22;24821;51.988;6.020;2022-10-13T04:30:26;11.80;99.90
39067;DHT22;24821;51.988;6.020;2022-10-13T04:32:52;11.90;99.90
39067;DHT22;24821;51.988;6.020;2022-10-13T04:35:17;11.90;99.90
39067;DHT22;24821;51.988;6.020;2022-10-13T04:37:43;12.00;99.90
39067;DHT22;24821;51.988;6.020;2022-10-13T04:40:09;12.00;99.90
39067;DHT22;24821;51.988;6.020;2022-10-13T04:42:34;12.00;99.90
39067;DHT22;24821;51.988;6.020;2022-10-13T04:45:00;12.10;99.90
39067;DHT22;24821;51.988;6.020;2022-10-13T04:47:25;12.10;99.90
39067;DHT22;24821;51.988;6.020;2022-10-13T04:49:51;12.10;99.90
39067;DHT22;24821;51.988;6.020;2022-10-13T04:52:16;12.10;99.90
39067;DHT22;24821;51.988;6.020;2022-10-13T04:54:42;12.20;99.90
39067;DHT22;24821;51.988;6.020;2022-10-13T04:57:08;12.20;99.90
39067;DHT22;24821;51.988;6.020;2022-10-13T04:59:33;12.20;99.90
39067;DHT22;24821;51.988;6.020;2022-10-13T05:01:59;12.30;99.90
39067;DHT22;24821;51.988;6.020;2022-10-13T05:04:24;12.30;99.90
39067;DHT22;24821;51.988;6.020;2022-10-13T05:06:50;12.30;99.90
39067;DHT22;24821;51.988;6.020;2022-10-13T05:09:15;12.30;99.90
39067;DHT22;24821;51.988;6.020;2022-10-13T05:11:41;12.30;99.90
39067;DHT22;24821;51.988;6.020;2022-10-13T05:14:06;12.40;99.90
39067;DHT22;24821;51.988;6.020;2022-10-13T05:16:32;12.40;99.90
39067;DHT22;24821;51.988;6.020;2022-10-13T05:18:58;12.40;99.90
39067;DHT22;24821;51.988;6.020;2022-10-13T05:21:26;12.40;99.90
39067;DHT22;24821;51.988;6.020;2022-10-13T05:23:53;12.40;99.90
39067;DHT22;24821;51.988;6.020;2022-10-13T05:26:22;12.40;99.90
39067;DHT22;24821;51.988;6.020;2022-10-13T05:28:48;12.40;99.90
39067;DHT22;24821;51.988;6.020;2022-10-13T05:31:15;12.40;99.90
39067;DHT22;24821;51.988;6.020;2022-10-13T05:33:41;12.50;99.90
39067;DHT22;24821;51.988;6.020;2022-10-13T05:36:09;12.50;99.90
39067;DHT22;24821;51.988;6.020;2022-10-13T05:38:34;12.50;99.90
39067;DHT22;24821;51.988;6.020;2022-10-13T05:41:08;12.50;99.90
39067;DHT22;24821;51.988;6.020;2022-10-13T05:43:35;12.50;99.90
39067;DHT22;24821;51.988;6.020;2022-10-13T05:46:02;12.50;99.90
39067;DHT22;24821;51.988;6.020;2022-10-13T05:48:27;12.50;99.90
39067;DHT22;24821;51.988;6.020;2022-10-13T05:50:54;12.60;99.90
39067;DHT22;24821;51.988;6.020;2022-10-13T05:53:22;12.60;99.90
39067;DHT22;24821;51.988;6.020;2022-10-13T05:55:50;12.60;99.90
39067;DHT22;24821;51.988;6.020;2022-10-13T05:58:16;12.60;99.90
39067;DHT22;24821;51.988;6.020;2022-10-13T06:00:43;12.70;99.90
39067;DHT22;24821;51.988;6.020;2022-10-13T06:03:18;12.70;99.90
39067;DHT22;24821;51.988;6.020;2022-10-13T06:05:46;12.80;99.90
39067;DHT22;24821;51.988;6.020;2022-10-13T06:08:15;12.80;99.90
39067;DHT22;24821;51.988;6.020;2022-10-13T06:10:41;12.80;99.90
39067;DHT22;24821;51.988;6.020;2022-10-13T06:13:08;12.80;99.90
39067;DHT22;24821;51.988;6.020;2022-10-13T06:15:34;12.80;99.90
39067;DHT22;24821;51.988;6.020;2022-10-13T06:17:59;12.90;99.90
39067;DHT22;24821;51.988;6.020;2022-10-13T06:20:25;12.90;99.90
39067;DHT22;24821;51.988;6.020;2022-10-13T06:22:54;12.90;99.90
39067;DHT22;24821;51.988;6.020;2022-10-13T06:25:20;13.00;99.90
39067;DHT22;24821;51.988;6.020;2022-10-13T06:27:46;13.10;99.90
39067;DHT22;24821;51.988;6.020;2022-10-13T06:30:11;13.10;99.90
39067;DHT22;24821;51.988;6.020;2022-10-13T06:32:37;13.10;99.90
39067;DHT22;24821;51.988;6.020;2022-10-13T06:35:03;13.20;99.90
39067;DHT22;24821;51.988;6.020;2022-10-13T06:37:29;13.20;99.90
39067;DHT22;24821;51.988;6.020;2022-10-13T06:39:54;13.30;99.90
39067;DHT22;24821;51.988;6.020;2022-10-13T06:42:20;13.30;99.90
39067;DHT22;24821;51.988;6.020;2022-10-13T06:44:46;13.30;99.90
39067;DHT22;24821;51.988;6.020;2022-10-13T06:47:11;13.30;99.90
39067;DHT22;24821;51.988;6.020;2022-10-13T06:49:37;13.30;99.90
39067;DHT22;24821;51.988;6.020;2022-10-13T06:52:03;13.40;99.90
39067;DHT22;24821;51.988;6.020;2022-10-13T06:54:29;13.40;99.90
39067;DHT22;24821;51.988;6.020;2022-10-13T06:56:55;13.40;99.90
39067;DHT22;24821;51.988;6.020;2022-10-13T06:59:20;13.40;99.90
39067;DHT22;24821;51.988;6.020;2022-10-13T07:01:47;13.50;99.90
39067;DHT22;24821;51.988;6.020;2022-10-13T07:04:13;13.50;99.90
39067;DHT22;24821;51.988;6.020;2022-10-13T07:06:39;13.50;99.90
39067;DHT22;24821;51.988;6.020;2022-10-13T07:09:05;13.50;99.90
39067;DHT22;24821;51.988;6.020;2022-10-13T07:11:31;13.50;99.90
39067;DHT22;24821;51.988;6.020;2022-10-13T07:13:57;13.50;99.90
39067;DHT22;24821;51.988;6.020;2022-10-13T07:16:22;13.50;99.90
39067;DHT22;24821;51.988;6.020;2022-10-13T07:18:48;13.50;99.90
39067;DHT22;24821;51.988;6.020;2022-10-13T07:21:14;13.40;99.90
39067;DHT22;24821;51.988;6.020;2022-10-13T07:23:40;13.50;99.90
39067;DHT22;24821;51.988;6.020;2022-10-13T07:26:10;13.50;99.90
39067;DHT22;24821;51.988;6.020;2022-10-13T07:28:36;13.50;99.90
39067;DHT22;24821;51.988;6.020;2022-10-13T07:31:16;13.50;99.90
39067;DHT22;24821;51.988;6.020;2022-10-13T07:33:44;13.60;99.90
39067;DHT22;24821;51.988;6.020;2022-10-13T07:36:11;13.50;99.90
39067;DHT22;24821;51.988;6.020;2022-10-13T07:38:38;13.60;99.90
39067;DHT22;24821;51.988;6.020;2022-10-13T07:41:06;13.60;99.90
39067;DHT22;24821;51.988;6.020;2022-10-13T07:43:32;13.60;99.90
39067;DHT22;24821;51.988;6.020;2022-10-13T07:45:59;13.60;99.90
39067;DHT22;24821;51.988;6.020;2022-10-13T07:48:25;13.70;99.90
39067;DHT22;24821;51.988;6.020;2022-10-13T07:50:51;13.60;99.90
39067;DHT22;24821;51.988;6.020;2022-10-13T07:53:17;13.70;99.90
39067;DHT22;24821;51.988;6.020;2022-10-13T07:55:42;13.70;99.90
39067;DHT22;24821;51.988;6.020;2022-10-13T07:58:08;13.70;99.90
39067;DHT22;24821;51.988;6.020;2022-10-13T08:00:34;13.70;99.90
39067;DHT22;24821;51.988;6.020;2022-10-13T08:02:59;13.70;99.90
39067;DHT22;24821;51.988;6.020;2022-10-13T08:05:25;13.80;99.90
39067;DHT22;24821;51.988;6.020;2022-10-13T08:07:50;13.80;99.90
39067;DHT22;24821;51.988;6.020;2022-10-13T08:10:16;13.80;99.90
39067;DHT22;24821;51.988;6.020;2022-10-13T08:12:42;13.90;99.90
39067;DHT22;24821;51.988;6.020;2022-10-13T08:15:08;13.90;99.90
39067;DHT22;24821;51.988;6.020;2022-10-13T08:17:34;13.90;99.90
39067;DHT22;24821;51.988;6.020;2022-10-13T08:19:59;14.00;99.90
39067;DHT22;24821;51.988;6.020;2022-10-13T08:22:25;14.00;99.90
39067;DHT22;24821;51.988;6.020;2022-10-13T08:24:51;14.00;99.90
39067;DHT22;24821;51.988;6.020;2022-10-13T08:27:22;14.10;99.90
39067;DHT22;24821;51.988;6.020;2022-10-13T08:29:48;14.10;99.90
39067;DHT22;24821;51.988;6.020;2022-10-13T08:32:14;14.10;99.90
39067;DHT22;24821;51.988;6.020;2022-10-13T08:34:40;14.20;99.90
39067;DHT22;24821;51.988;6.020;2022-10-13T08:37:05;14.30;99.90
39067;DHT22;24821;51.988;6.020;2022-10-13T08:39:31;14.30;99.90
39067;DHT22;24821;51.988;6.020;2022-10-13T08:41:57;14.40;99.90
39067;DHT22;24821;51.988;6.020;2022-10-13T08:44:38;14.60;99.90
39067;DHT22;24821;51.988;6.020;2022-10-13T08:49:59;14.80;99.90
39067;DHT22;24821;51.988;6.020;2022-10-13T08:52:28;14.90;99.90
39067;DHT22;24821;51.988;6.020;2022-10-13T08:54:54;14.90;99.90
39067;DHT22;24821;51.988;6.020;2022-10-13T08:57:21;14.90;99.90
39067;DHT22;24821;51.988;6.020;2022-10-13T08:59:47;14.80;99.90
39067;DHT22;24821;51.988;6.020;2022-10-13T09:02:24;14.80;99.90
39067;DHT22;24821;51.988;6.020;2022-10-13T09:04:54;14.80;99.90
39067;DHT22;24821;51.988;6.020;2022-10-13T09:07:27;14.80;99.90
39067;DHT22;24821;51.988;6.020;2022-10-13T09:09:54;14.80;99.90
39067;DHT22;24821;51.988;6.020;2022-10-13T09:12:21;14.80;99.90
39067;DHT22;24821;51.988;6.020;2022-10-13T09:15:16;14.80;99.90
39067;DHT22;24821;51.988;6.020;2022-10-13T09:17:42;14.80;99.90
39067;DHT22;24821;51.988;6.020;2022-10-13T09:20:23;14.90;99.90
39067;DHT22;24821;51.988;6.020;2022-10-13T09:23:08;15.10;99.90
39067;DHT22;24821;51.988;6.020;2022-10-13T09:25:45;15.30;99.90
39067;DHT22;24821;51.988;6.020;2022-10-13T09:28:25;15.50;99.90
39067;DHT22;24821;51.988;6.020;2022-10-13T09:31:04;15.80;99.90
39067;DHT22;24821;51.988;6.020;2022-10-13T09:33:35;15.90;99.90
39067;DHT22;24821;51.988;6.020;2022-10-13T09:38:28;16.10;99.90
39067;DHT22;24821;51.988;6.020;2022-10-13T09:41:04;16.20;99.90
39067;DHT22;24821;51.988;6.020;2022-10-13T09:48:52;16.30;99.90
39067;DHT22;24821;51.988;6.020;2022-10-13T09:53:57;16.30;99.80
39067;DHT22;24821;51.988;6.020;2022-10-13T10:01:36;16.20;99.70
39067;DHT22;24821;51.988;6.020;2022-10-13T10:04:22;16.20;99.80
39067;DHT22;24821;51.988;6.020;2022-10-13T10:06:49;16.30;99.80
39067;DHT22;24821;51.988;6.020;2022-10-13T10:11:58;16.30;99.90
39067;DHT22;24821;51.988;6.020;2022-10-13T10:14:27;16.30;99.90
39067;DHT22;24821;51.988;6.020;2022-10-13T10:20:02;16.50;99.80
39067;DHT22;24821;51.988;6.020;2022-10-13T10:26:01;16.60;99.40
39067;DHT22;24821;51.988;6.020;2022-10-13T10:39:22;16.60;99.10
39067;DHT22;24821;51.988;6.020;2022-10-13T10:44:36;16.50;99.20
39067;DHT22;24821;51.988;6.020;2022-10-13T10:47:26;16.40;99.40
39067;DHT22;24821;51.988;6.020;2022-10-13T10:50:00;16.40;99.40
39067;DHT22;24821;51.988;6.020;2022-10-13T10:55:34;16.40;99.30
39067;DHT22;24821;51.988;6.020;2022-10-13T11:03:34;16.30;99.60
39067;DHT22;24821;51.988;6.020;2022-10-13T11:08:47;16.40;99.40
39067;DHT22;24821;51.988;6.020;2022-10-13T11:16:37;16.20;99.50
39067;DHT22;24821;51.988;6.020;2022-10-13T11:19:04;16.10;99.70
39067;DHT22;24821;51.988;6.020;2022-10-13T11:29:56;15.70;99.90
39067;DHT22;24821;51.988;6.020;2022-10-13T11:35:22;15.50;99.90
39067;DHT22;24821;51.988;6.020;2022-10-13T11:45:45;15.30;99.90
39067;DHT22;24821;51.988;6.020;2022-10-13T11:48:31;15.30;99.90
39067;DHT22;24821;51.988;6.020;2022-10-13T11:54:05;15.10;99.90
39067;DHT22;24821;51.988;6.020;2022-10-13T11:56:47;15.10;99.90
39067;DHT22;24821;51.988;6.020;2022-10-13T11:59:25;15.10;99.90
39067;DHT22;24821;51.988;6.020;2022-10-13T12:02:17;15.10;99.90
39067;DHT22;24821;51.988;6.020;2022-10-13T12:07:45;15.00;99.90
39067;DHT22;24821;51.988;6.020;2022-10-13T12:10:19;15.00;99.90
39067;DHT22;24821;51.988;6.020;2022-10-13T12:12:48;15.00;99.90
39067;DHT22;24821;51.988;6.020;2022-10-13T12:15:31;15.00;99.90
39067;DHT22;24821;51.988;6.020;2022-10-13T12:17:57;15.00;99.90
39067;DHT22;24821;51.988;6.020;2022-10-13T12:20:25;15.00;99.90
39067;DHT22;24821;51.988;6.020;2022-10-13T12:22:53;14.90;99.90
39067;DHT22;24821;51.988;6.020;2022-10-13T12:25:21;15.00;99.90
39067;DHT22;24821;51.988;6.020;2022-10-13T12:27:50;14.90;99.90
39067;DHT22;24821;51.988;6.020;2022-10-13T12:32:51;15.00;99.90
39067;DHT22;24821;51.988;6.020;2022-10-13T12:35:18;15.00;99.90
39067;DHT22;24821;51.988;6.020;2022-10-13T12:37:44;15.00;99.90
39067;DHT22;24821;51.988;6.020;2022-10-13T12:40:15;15.00;99.90
39067;DHT22;24821;51.988;6.020;2022-10-13T12:42:41;15.10;99.90
39067;DHT22;24821;51.988;6.020;2022-10-13T12:45:14;15.10;99.90
39067;DHT22;24821;51.988;6.020;2022-10-13T12:53:10;15.20;99.90
39067;DHT22;24821;51.988;6.020;2022-10-13T12:55:55;15.10;99.90
39067;DHT22;24821;51.988;6.020;2022-10-13T12:58:28;15.20;99.90
39067;DHT22;24821;51.988;6.020;2022-10-13T13:03:26;15.10;99.90
39067;DHT22;24821;51.988;6.020;2022-10-13T13:06:29;15.10;99.90
39067;DHT22;24821;51.988;6.020;2022-10-13T13:11:36;15.10;99.90
39067;DHT22;24821;51.988;6.020;2022-10-13T13:14:22;14.90;99.90
39067;DHT22;24821;51.988;6.020;2022-10-13T13:19:33;14.90;99.90
39067;DHT22;24821;51.988;6.020;2022-10-13T13:21:59;14.90;99.90
39067;DHT22;24821;51.988;6.020;2022-10-13T13:24:24;14.90;99.90
39067;DHT22;24821;51.988;6.020;2022-10-13T13:26:51;15.00;99.90
39067;DHT22;24821;51.988;6.020;2022-10-13T13:29:17;15.10;99.90
39067;DHT22;24821;51.988;6.020;2022-10-13T13:31:42;15.10;99.90
39067;DHT22;24821;51.988;6.020;2022-10-13T13:34:08;15.10;99.90
39067;DHT22;24821;51.988;6.020;2022-10-13T13:36:33;15.20;99.90
39067;DHT22;24821;51.988;6.020;2022-10-13T13:38:59;15.20;99.90
39067;DHT22;24821;51.988;6.020;2022-10-13T13:41:25;15.20;99.90
39067;DHT22;24821;51.988;6.020;2022-10-13T13:43:55;15.30;99.90
39067;DHT22;24821;51.988;6.020;2022-10-13T13:46:23;15.30;99.90
39067;DHT22;24821;51.988;6.020;2022-10-13T13:48:50;15.30;99.90
39067;DHT22;24821;51.988;6.020;2022-10-13T13:51:16;15.40;99.90
39067;DHT22;24821;51.988;6.020;2022-10-13T13:53:41;15.40;99.90
39067;DHT22;24821;51.988;6.020;2022-10-13T13:56:13;15.40;99.90
39067;DHT22;24821;51.988;6.020;2022-10-13T13:58:39;15.40;99.90
39067;DHT22;24821;51.988;6.020;2022-10-13T14:01:04;15.40;99.90
39067;DHT22;24821;51.988;6.020;2022-10-13T14:03:30;15.40;99.90
39067;DHT22;24821;51.988;6.020;2022-10-13T14:05:55;15.40;99.90
39067;DHT22;24821;51.988;6.020;2022-10-13T14:08:21;15.40;99.90
39067;DHT22;24821;51.988;6.020;2022-10-13T14:10:46;15.50;99.90
39067;DHT22;24821;51.988;6.020;2022-10-13T14:13:12;15.50;99.90
39067;DHT22;24821;51.988;6.020;2022-10-13T14:15:37;15.40;99.90
39067;DHT22;24821;51.988;6.020;2022-10-13T14:18:03;15.50;99.90
39067;DHT22;24821;51.988;6.020;2022-10-13T14:20:28;15.40;99.90
39067;DHT22;24821;51.988;6.020;2022-10-13T14:22:54;15.40;99.90
39067;DHT22;24821;51.988;6.020;2022-10-13T14:25:20;15.40;99.90
39067;DHT22;24821;51.988;6.020;2022-10-13T14:27:45;15.40;99.90
39067;DHT22;24821;51.988;6.020;2022-10-13T14:30:12;15.50;99.90
39067;DHT22;24821;51.988;6.020;2022-10-13T14:32:37;15.50;99.90
39067;DHT22;24821;51.988;6.020;2022-10-13T14:35:04;15.50;99.90
39067;DHT22;24821;51.988;6.020;2022-10-13T14:37:29;15.50;99.90
39067;DHT22;24821;51.988;6.020;2022-10-13T14:39:55;15.50;99.90
39067;DHT22;24821;51.988;6.020;2022-10-13T14:42:21;15.50;99.90
39067;DHT22;24821;51.988;6.020;2022-10-13T14:44:46;15.40;99.90
39067;DHT22;24821;51.988;6.020;2022-10-13T14:47:12;15.40;99.90
39067;DHT22;24821;51.988;6.020;2022-10-13T14:49:38;15.30;99.90
39067;DHT22;24821;51.988;6.020;2022-10-13T14:52:03;15.30;99.90
39067;DHT22;24821;51.988;6.020;2022-10-13T14:54:29;15.20;99.90
39067;DHT22;24821;51.988;6.020;2022-10-13T14:56:54;15.20;99.90
39067;DHT22;24821;51.988;6.020;2022-10-13T14:59:20;15.20;99.90
39067;DHT22;24821;51.988;6.020;2022-10-13T15:01:47;15.10;99.90
39067;DHT22;24821;51.988;6.020;2022-10-13T15:04:13;15.10;99.90
39067;DHT22;24821;51.988;6.020;2022-10-13T15:06:39;15.10;99.90
39067;DHT22;24821;51.988;6.020;2022-10-13T15:09:05;15.10;99.90
39067;DHT22;24821;51.988;6.020;2022-10-13T15:11:31;15.10;99.90
39067;DHT22;24821;51.988;6.020;2022-10-13T15:13:57;15.10;99.90
39067;DHT22;24821;51.988;6.020;2022-10-13T15:16:25;15.10;99.90
39067;DHT22;24821;51.988;6.020;2022-10-13T15:18:52;15.10;99.90
39067;DHT22;24821;51.988;6.020;2022-10-13T15:21:18;15.10;99.90
39067;DHT22;24821;51.988;6.020;2022-10-13T15:23:44;15.10;99.90
39067;DHT22;24821;51.988;6.020;2022-10-13T15:26:11;15.10;99.90
39067;DHT22;24821;51.988;6.020;2022-10-13T15:28:43;15.00;99.90
39067;DHT22;24821;51.988;6.020;2022-10-13T15:31:09;15.00;99.90
39067;DHT22;24821;51.988;6.020;2022-10-13T15:33:35;14.90;99.90
39067;DHT22;24821;51.988;6.020;2022-10-13T15:36:00;15.00;99.90
39067;DHT22;24821;51.988;6.020;2022-10-13T15:38:26;15.00;99.90
39067;DHT22;24821;51.988;6.020;2022-10-13T15:40:52;15.00;99.90
39067;DHT22;24821;51.988;6.020;2022-10-13T15:43:18;15.00;99.90
39067;DHT22;24821;51.988;6.020;2022-10-13T15:45:53;15.00;99.90
39067;DHT22;24821;51.988;6.020;2022-10-13T15:48:19;15.00;99.90
39067;DHT22;24821;51.988;6.020;2022-10-13T15:50:45;15.00;99.90
39067;DHT22;24821;51.988;6.020;2022-10-13T15:53:10;15.00;99.90
39067;DHT22;24821;51.988;6.020;2022-10-13T15:55:37;15.00;99.90
39067;DHT22;24821;51.988;6.020;2022-10-13T15:58:04;15.00;99.90
39067;DHT22;24821;51.988;6.020;2022-10-13T16:00:30;15.00;99.90
39067;DHT22;24821;51.988;6.020;2022-10-13T16:02:56;15.00;99.90
39067;DHT22;24821;51.988;6.020;2022-10-13T16:05:21;15.00;99.90
39067;DHT22;24821;51.988;6.020;2022-10-13T16:07:47;15.00;99.90
39067;DHT22;24821;51.988;6.020;2022-10-13T16:10:13;15.10;99.90
39067;DHT22;24821;51.988;6.020;2022-10-13T16:12:40;15.00;99.90
39067;DHT22;24821;51.988;6.020;2022-10-13T16:15:06;15.00;99.90
39067;DHT22;24821;51.988;6.020;2022-10-13T16:17:32;15.00;99.90
39067;DHT22;24821;51.988;6.020;2022-10-13T16:19:58;15.00;99.90
39067;DHT22;24821;51.988;6.020;2022-10-13T16:22:24;15.00;99.90
39067;DHT22;24821;51.988;6.020;2022-10-13T16:24:50;15.00;99.90
39067;DHT22;24821;51.988;6.020;2022-10-13T16:27:16;15.00;99.90
39067;DHT22;24821;51.988;6.020;2022-10-13T16:29:41;15.00;99.90
39067;DHT22;24821;51.988;6.020;2022-10-13T16:32:07;15.00;99.90
39067;DHT22;24821;51.988;6.020;2022-10-13T16:34:33;14.90;99.90
39067;DHT22;24821;51.988;6.020;2022-10-13T16:36:58;14.90;99.90
39067;DHT22;24821;51.988;6.020;2022-10-13T16:39:24;15.00;99.90
39067;DHT22;24821;51.988;6.020;2022-10-13T16:41:51;15.00;99.90
39067;DHT22;24821;51.988;6.020;2022-10-13T16:44:16;14.90;99.90
39067;DHT22;24821;51.988;6.020;2022-10-13T16:46:42;15.00;99.90
39067;DHT22;24821;51.988;6.020;2022-10-13T16:49:11;14.90;99.90
39067;DHT22;24821;51.988;6.020;2022-10-13T16:51:37;15.00;99.90
39067;DHT22;24821;51.988;6.020;2022-10-13T16:54:02;15.00;99.90
39067;DHT22;24821;51.988;6.020;2022-10-13T16:56:28;14.90;99.90
39067;DHT22;24821;51.988;6.020;2022-10-13T16:59:02;15.00;99.90
39067;DHT22;24821;51.988;6.020;2022-10-13T17:01:29;15.00;99.90
39067;DHT22;24821;51.988;6.020;2022-10-13T17:03:56;15.00;99.90
39067;DHT22;24821;51.988;6.020;2022-10-13T17:06:24;15.00;99.90
39067;DHT22;24821;51.988;6.020;2022-10-13T17:08:50;15.00;99.90
39067;DHT22;24821;51.988;6.020;2022-10-13T17:11:18;15.00;99.90
39067;DHT22;24821;51.988;6.020;2022-10-13T17:13:44;15.00;99.90
39067;DHT22;24821;51.988;6.020;2022-10-13T17:16:09;15.00;99.90
39067;DHT22;24821;51.988;6.020;2022-10-13T17:18:35;15.00;99.90
39067;DHT22;24821;51.988;6.020;2022-10-13T17:21:03;15.00;99.90
39067;DHT22;24821;51.988;6.020;2022-10-13T17:23:30;15.00;99.90
39067;DHT22;24821;51.988;6.020;2022-10-13T17:26:07;14.90;99.90
39067;DHT22;24821;51.988;6.020;2022-10-13T17:28:34;15.00;99.90
39067;DHT22;24821;51.988;6.020;2022-10-13T17:31:03;15.00;99.90
39067;DHT22;24821;51.988;6.020;2022-10-13T17:33:30;15.00;99.90
39067;DHT22;24821;51.988;6.020;2022-10-13T17:36:01;14.90;99.90